Aviation Digital Data Service (ADDS)

Output produced by METARs form (2034 UTC 08 February 2023)
found at http://aviationweather.gov/metar/data/
 
KOEO 082015Z AUTO 19010KT 10SM CLR 06/00 A3007 RMK AO2 T00620003